Time;durP1;ratioP1;P1;durP2;ratioP2;P2;SDS_P1;SDS_P2;PMS_P1;PMS_P2;Temp;Humidity;BMP_temperature;BMP_pressure;BME280_temperature;BME280_humidity;BME280_pressure;Samples;Min_cycle;Max_cycle;Signal;HPM_P1;HPM_P2
2023/01/01 00:01:49;;;;;;;18.80;7.03;;;;;;;;;;5061765;28;20112;-83
2023/01/01 00:04:15;;;;;;;18.13;6.85;;;;;;;;;;5059547;28;20146;-83
2023/01/01 00:06:42;;;;;;;19.50;7.57;;;;;;;;;;5073128;28;20036;-87
2023/01/01 00:11:53;;;;;;;15.68;6.20;;;;;;;;;;5083107;28;20054;-86
2023/01/01 00:14:19;;;;;;;24.10;7.68;;;;;;;;;;5076753;28;20380;-85
2023/01/01 00:16:45;;;;;;;19.50;5.75;;;;;;;;;;5067135;28;20053;-85
2023/01/01 00:19:11;;;;;;;23.55;6.55;;;;;;;;;;5056442;28;20048;-85
2023/01/01 00:21:38;;;;;;;17.30;5.97;;;;;;;;;;5071291;28;20032;-85
2023/01/01 00:24:05;;;;;;;20.17;5.80;;;;;;;;;;5054895;28;20033;-84
2023/01/01 00:26:31;;;;;;;19.77;6.60;;;;;;;;;;5069396;28;20033;-84
2023/01/01 00:28:57;;;;;;;17.70;5.93;;;;;;;;;;5070382;28;20028;-87
2023/01/01 00:31:23;;;;;;;19.88;6.63;;;;;;;;;;5069147;28;20082;-86
2023/01/01 00:33:50;;;;;;;21.77;7.80;;;;;;;;;;5068676;28;20036;-87
2023/01/01 00:36:17;;;;;;;23.42;7.35;;;;;;;;;;5071431;28;20044;-86
2023/01/01 00:38:44;;;;;;;22.25;8.75;;;;;;;;;;5053398;28;20108;-86
2023/01/01 00:41:10;;;;;;;30.80;9.80;;;;;;;;;;5038608;28;20037;-86
2023/01/01 00:43:36;;;;;;;23.38;9.18;;;;;;;;;;5053892;28;20449;-87
2023/01/01 00:46:03;;;;;;;23.55;10.85;;;;;;;;;;5058151;28;20117;-86
2023/01/01 00:48:29;;;;;;;23.75;12.73;;;;;;;;;;5034755;28;20082;-86
2023/01/01 00:50:55;;;;;;;34.75;15.65;;;;;;;;;;5048566;28;20032;-89
2023/01/01 00:53:22;;;;;;;29.52;15.40;;;;;;;;;;5071532;28;20112;-86
2023/01/01 00:55:49;;;;;;;28.88;16.98;;;;;;;;;;5070466;28;20032;-86
2023/01/01 00:58:16;;;;;;;33.35;17.73;;;;;;;;;;5058313;28;20048;-87
2023/01/01 01:00:42;;;;;;;33.28;19.00;;;;;;;;;;5073191;28;20376;-85
2023/01/01 01:03:09;;;;;;;39.90;19.40;;;;;;;;;;5057982;28;20036;-83
2023/01/01 01:05:37;;;;;;;34.20;19.75;;;;;;;;;;5049423;28;20083;-83
2023/01/01 01:08:04;;;;;;;40.58;20.83;;;;;;;;;;5062934;28;20031;-83
2023/01/01 01:10:30;;;;;;;45.00;23.30;;;;;;;;;;5074248;28;20115;-85
2023/01/01 01:12:56;;;;;;;45.38;23.20;;;;;;;;;;5071182;28;20071;-83
2023/01/01 01:15:22;;;;;;;41.03;23.77;;;;;;;;;;5071900;28;20131;-83
2023/01/01 01:17:48;;;;;;;42.88;25.42;;;;;;;;;;5072906;28;20044;-86
2023/01/01 01:20:14;;;;;;;40.80;24.70;;;;;;;;;;5071896;28;20120;-88
2023/01/01 01:22:40;;;;;;;40.20;24.25;;;;;;;;;;5071751;28;20037;-86
2023/01/01 01:25:07;;;;;;;43.15;25.45;;;;;;;;;;5052968;28;20037;-88
2023/01/01 01:27:33;;;;;;;40.47;25.55;;;;;;;;;;5063162;28;20025;-88
2023/01/01 01:29:59;;;;;;;50.67;25.58;;;;;;;;;;5068790;28;20028;-88
2023/01/01 01:32:25;;;;;;;45.53;27.55;;;;;;;;;;5073941;28;20040;-82
2023/01/01 01:34:51;;;;;;;45.90;26.90;;;;;;;;;;5053131;28;20119;-87
2023/01/01 01:37:17;;;;;;;48.47;28.98;;;;;;;;;;5062425;28;20066;-84
2023/01/01 01:39:43;;;;;;;51.38;29.77;;;;;;;;;;5056078;28;20036;-85
2023/01/01 01:42:15;;;;;;;46.63;32.13;;;;;;;;;;5062464;28;20041;-86
2023/01/01 01:44:41;;;;;;;;;;;;;;;;;;5051639;28;20087;-85
2023/01/01 01:47:11;;;;;;;48.25;31.65;;;;;;;;;;5068090;28;19916;-82
2023/01/01 01:49:37;;;;;;;44.60;29.48;;;;;;;;;;5070977;28;20024;-86
2023/01/01 01:52:03;;;;;;;49.50;31.45;;;;;;;;;;5048213;28;20040;-87
2023/01/01 01:54:29;;;;;;;52.25;31.75;;;;;;;;;;5035606;28;20035;-84
2023/01/01 01:57:07;;;;;;;52.97;31.40;;;;;;;;;;5050226;28;20478;-86
2023/01/01 01:59:36;;;;;;;51.55;32.17;;;;;;;;;;5070507;28;20369;-84
2023/01/01 02:02:02;;;;;;;58.13;32.78;;;;;;;;;;5069599;28;20062;-86
2023/01/01 02:04:29;;;;;;;54.28;33.20;;;;;;;;;;5066652;28;20028;-83
2023/01/01 02:06:55;;;;;;;54.45;33.17;;;;;;;;;;5079997;28;20499;-85
2023/01/01 02:09:21;;;;;;;47.67;33.08;;;;;;;;;;5044760;28;20024;-85
2023/01/01 02:11:47;;;;;;;55.28;33.83;;;;;;;;;;5064034;28;20028;-85
2023/01/01 02:14:13;;;;;;;49.33;31.80;;;;;;;;;;5046234;28;20025;-81
2023/01/01 02:16:39;;;;;;;47.88;28.67;;;;;;;;;;5057364;28;20053;-87
2023/01/01 02:19:08;;;;;;;48.92;30.02;;;;;;;;;;5059981;28;20504;-84
2023/01/01 02:21:53;;;;;;;51.63;30.65;;;;;;;;;;5058181;28;20090;-81
2023/01/01 02:24:29;;;;;;;48.63;31.27;;;;;;;;;;5060656;28;20050;-83
2023/01/01 02:27:02;;;;;;;58.17;31.48;;;;;;;;;;5060129;28;20025;-85
2023/01/01 02:29:41;;;;;;;59.50;28.92;;;;;;;;;;5068895;28;20035;-84
2023/01/01 02:32:09;;;;;;;48.10;27.08;;;;;;;;;;5072170;28;20032;-84
2023/01/01 02:34:39;;;;;;;46.88;28.42;;;;;;;;;;5051254;28;20024;-83
2023/01/01 02:37:07;;;;;;;49.75;25.83;;;;;;;;;;5071609;28;20025;-83
2023/01/01 02:39:34;;;;;;;40.63;23.38;;;;;;;;;;5065006;28;20031;-83
2023/01/01 02:42:02;;;;;;;33.55;23.38;;;;;;;;;;5066476;28;20089;-83
2023/01/01 02:44:30;;;;;;;46.15;20.70;;;;;;;;;;5065068;28;20024;-84
2023/01/01 02:46:56;;;;;;;41.63;20.95;;;;;;;;;;5070443;28;20063;-83
2023/01/01 02:49:22;;;;;;;42.97;20.20;;;;;;;;;;5063380;28;20056;-84
2023/01/01 02:52:01;;;;;;;32.95;18.08;;;;;;;;;;5067986;28;20587;-83
2023/01/01 02:54:53;;;;;;;35.75;18.23;;;;;;;;;;5052212;28;20033;-81
2023/01/01 02:57:29;;;;;;;30.35;15.98;;;;;;;;;;5049547;28;20116;-82
2023/01/01 03:03:05;;;;;;;36.58;15.32;;;;;;;;;;5065429;28;20035;-82
2023/01/01 03:06:21;;;;;;;25.77;13.85;;;;;;;;;;5067432;28;20419;-80
2023/01/01 03:08:29;;;;;;;28.38;14.18;;;;;;;;;;5063357;28;20258;-81
2023/01/01 03:11:07;;;;;;;25.48;13.93;;;;;;;;;;5066871;28;20029;-81
2023/01/01 03:13:39;;;;;;;23.38;13.27;;;;;;;;;;5070400;28;20097;-81
2023/01/01 03:16:11;;;;;;;28.75;13.25;;;;;;;;;;5063935;28;20050;-81
2023/01/01 03:19:09;;;;;;;29.02;13.00;;;;;;;;;;5065364;28;20039;-81
2023/01/01 03:24:48;;;;;;;28.33;12.65;;;;;;;;;;5070956;28;20571;-81
2023/01/01 03:27:14;;;;;;;30.00;11.63;;;;;;;;;;5065217;28;20501;-80
2023/01/01 03:29:41;;;;;;;25.13;11.43;;;;;;;;;;5062918;28;20056;-81
2023/01/01 03:32:11;;;;;;;26.23;12.48;;;;;;;;;;5066143;28;20025;-81
2023/01/01 03:34:39;;;;;;;31.98;12.45;;;;;;;;;;5066973;28;20017;-80
2023/01/01 03:37:07;;;;;;;28.10;11.55;;;;;;;;;;5063929;28;20466;-80
2023/01/01 03:39:35;;;;;;;23.58;11.35;;;;;;;;;;5064744;28;20028;-81
2023/01/01 03:42:07;;;;;;;18.52;9.30;;;;;;;;;;5059073;28;20044;-81
2023/01/01 03:44:35;;;;;;;27.45;9.73;;;;;;;;;;5064918;28;20369;-81
2023/01/01 03:47:01;;;;;;;26.42;8.45;;;;;;;;;;5061296;28;20020;-81
2023/01/01 03:49:29;;;;;;;19.27;8.00;;;;;;;;;;5069885;28;20035;-82
2023/01/01 03:52:11;;;;;;;27.05;7.43;;;;;;;;;;5062979;28;20104;-81
2023/01/01 03:54:46;;;;;;;22.98;6.50;;;;;;;;;;5063095;28;20469;-81
2023/01/01 03:57:18;;;;;;;24.80;5.28;;;;;;;;;;5066888;28;20388;-81
2023/01/01 03:59:51;;;;;;;16.50;4.75;;;;;;;;;;5072725;28;20032;-82
2023/01/01 04:02:20;;;;;;;20.02;4.75;;;;;;;;;;5047356;28;20052;-81
2023/01/01 04:04:48;;;;;;;15.52;4.25;;;;;;;;;;5050661;28;20086;-81
2023/01/01 04:07:14;;;;;;;25.00;4.60;;;;;;;;;;5067603;28;20021;-82
2023/01/01 04:09:42;;;;;;;18.80;4.05;;;;;;;;;;5068397;28;20111;-81
2023/01/01 04:12:09;;;;;;;18.88;3.88;;;;;;;;;;5065416;28;20441;-81
2023/01/01 04:14:41;;;;;;;19.08;4.15;;;;;;;;;;5072470;28;20036;-81
2023/01/01 04:17:08;;;;;;;29.45;5.75;;;;;;;;;;5065496;28;20041;-80
2023/01/01 04:19:34;;;;;;;27.40;5.63;;;;;;;;;;5069845;28;20032;-81
2023/01/01 04:22:01;;;;;;;25.20;4.72;;;;;;;;;;5068626;28;21302;-81
2023/01/01 04:24:27;;;;;;;23.95;5.03;;;;;;;;;;5069566;28;20033;-81
2023/01/01 04:26:53;;;;;;;26.52;5.18;;;;;;;;;;5068074;28;20040;-81
2023/01/01 04:29:20;;;;;;;23.42;4.22;;;;;;;;;;5067618;28;20056;-82
2023/01/01 04:31:46;;;;;;;33.28;7.35;;;;;;;;;;5073906;28;20024;-84
2023/01/01 04:34:12;;;;;;;18.55;4.07;;;;;;;;;;5066859;28;20028;-82
2023/01/01 04:36:38;;;;;;;22.63;3.97;;;;;;;;;;5070610;28;20420;-83
2023/01/01 04:39:04;;;;;;;17.48;3.75;;;;;;;;;;5066402;28;20111;-82
2023/01/01 04:41:31;;;;;;;28.77;4.90;;;;;;;;;;5067686;28;20039;-83
2023/01/01 04:43:57;;;;;;;19.15;4.30;;;;;;;;;;5064018;28;20040;-83
2023/01/01 04:46:23;;;;;;;18.65;3.35;;;;;;;;;;5072458;28;20037;-83
2023/01/01 04:48:49;;;;;;;21.45;3.92;;;;;;;;;;5050224;28;20032;-82
2023/01/01 04:51:16;;;;;;;20.25;4.63;;;;;;;;;;5067444;28;20036;-82
2023/01/01 04:53:43;;;;;;;19.33;3.95;;;;;;;;;;5065887;28;20025;-83
2023/01/01 04:56:10;;;;;;;24.13;4.13;;;;;;;;;;5062925;28;20107;-83
2023/01/01 04:58:37;;;;;;;17.60;3.70;;;;;;;;;;5068552;28;20024;-83
2023/01/01 05:01:03;;;;;;;19.38;3.63;;;;;;;;;;5065841;28;20028;-83
2023/01/01 05:03:29;;;;;;;13.35;2.58;;;;;;;;;;5048828;28;20856;-83
2023/01/01 05:06:04;;;;;;;18.15;3.90;;;;;;;;;;5070047;28;20099;-84
2023/01/01 05:08:31;;;;;;;13.55;3.28;;;;;;;;;;5072161;28;20041;-84
2023/01/01 05:11:04;;;;;;;11.95;2.22;;;;;;;;;;5073286;28;20039;-83
2023/01/01 05:13:30;;;;;;;20.02;3.17;;;;;;;;;;5068864;28;20032;-83
2023/01/01 05:15:56;;;;;;;13.90;3.08;;;;;;;;;;5070841;28;20028;-82
2023/01/01 05:18:22;;;;;;;18.65;3.00;;;;;;;;;;5070129;28;20040;-82
2023/01/01 05:20:48;;;;;;;20.08;3.63;;;;;;;;;;5063168;28;20028;-83
2023/01/01 05:23:17;;;;;;;21.83;4.22;;;;;;;;;;5069515;28;20052;-83
2023/01/01 05:25:43;;;;;;;14.20;2.22;;;;;;;;;;5071209;28;20053;-83
2023/01/01 05:28:09;;;;;;;12.65;2.60;;;;;;;;;;5069734;28;20035;-82
2023/01/01 05:30:39;;;;;;;8.20;1.77;;;;;;;;;;5037476;28;20025;-82
2023/01/01 05:33:05;;;;;;;10.73;2.28;;;;;;;;;;5063664;28;20063;-84
2023/01/01 05:35:31;;;;;;;11.80;3.13;;;;;;;;;;5071514;28;20036;-84
2023/01/01 05:37:57;;;;;;;15.25;3.10;;;;;;;;;;5049563;28;20358;-83
2023/01/01 05:40:23;;;;;;;11.48;2.20;;;;;;;;;;5074064;28;20079;-83
2023/01/01 05:42:49;;;;;;;9.35;1.98;;;;;;;;;;5067407;28;20473;-85
2023/01/01 05:45:15;;;;;;;18.98;3.17;;;;;;;;;;5069511;28;20036;-84
2023/01/01 05:47:41;;;;;;;11.10;2.00;;;;;;;;;;5047705;28;20150;-84
2023/01/01 05:50:07;;;;;;;10.43;1.50;;;;;;;;;;5065634;28;20619;-83
2023/01/01 05:52:33;;;;;;;11.15;1.70;;;;;;;;;;5057616;28;20028;-84
2023/01/01 05:55:00;;;;;;;17.48;3.65;;;;;;;;;;5068969;28;20029;-84
2023/01/01 05:57:27;;;;;;;13.10;2.10;;;;;;;;;;5050518;28;20295;-85
2023/01/01 05:59:53;;;;;;;11.75;2.17;;;;;;;;;;5061142;28;20032;-83
2023/01/01 06:02:20;;;;;;;8.45;1.67;;;;;;;;;;5064017;28;20068;-85
2023/01/01 06:04:46;;;;;;;18.77;1.98;;;;;;;;;;5067757;28;20024;-86
2023/01/01 06:07:12;;;;;;;11.85;1.48;;;;;;;;;;5067680;28;20032;-85
2023/01/01 06:09:38;;;;;;;8.30;1.52;;;;;;;;;;5060524;28;20544;-85
2023/01/01 06:12:04;;;;;;;10.95;2.00;;;;;;;;;;5066657;28;20020;-83
2023/01/01 06:14:31;;;;;;;9.70;1.83;;;;;;;;;;5071333;28;20160;-84
2023/01/01 06:16:57;;;;;;;11.00;2.15;;;;;;;;;;5068444;28;20127;-84
2023/01/01 06:19:23;;;;;;;8.93;1.73;;;;;;;;;;5064641;28;20104;-84
2023/01/01 06:21:49;;;;;;;13.95;2.00;;;;;;;;;;5050234;28;20043;-84
2023/01/01 06:24:15;;;;;;;6.93;1.60;;;;;;;;;;5062958;28;20041;-86
2023/01/01 06:26:41;;;;;;;15.23;3.13;;;;;;;;;;5064668;28;20082;-85
2023/01/01 06:29:07;;;;;;;10.30;1.83;;;;;;;;;;5063009;28;20428;-84
2023/01/01 06:31:33;;;;;;;14.23;2.47;;;;;;;;;;5066302;28;20036;-84
2023/01/01 06:33:59;;;;;;;16.02;2.47;;;;;;;;;;5065086;28;20039;-84
2023/01/01 06:36:26;;;;;;;7.75;2.97;;;;;;;;;;5064270;28;20039;-86
2023/01/01 06:38:54;;;;;;;17.55;1.77;;;;;;;;;;5061839;28;20032;-86
2023/01/01 06:41:21;;;;;;;13.45;2.95;;;;;;;;;;5069502;28;20039;-85
2023/01/01 06:43:47;;;;;;;15.57;1.85;;;;;;;;;;5062911;28;20082;-84
2023/01/01 06:46:13;;;;;;;13.13;1.98;;;;;;;;;;5058952;28;20094;-83
2023/01/01 06:48:39;;;;;;;17.15;2.10;;;;;;;;;;5055448;28;20028;-84
2023/01/01 06:51:07;;;;;;;16.35;2.17;;;;;;;;;;5064653;28;20149;-81
2023/01/01 06:53:33;;;;;;;15.77;3.28;;;;;;;;;;5065906;28;20504;-84
2023/01/01 06:55:59;;;;;;;19.48;3.33;;;;;;;;;;5061604;28;20454;-85
2023/01/01 06:58:25;;;;;;;23.70;8.07;;;;;;;;;;5043553;28;20062;-77
2023/01/01 07:00:51;;;;;;;23.70;3.65;;;;;;;;;;5060527;28;20055;-81
2023/01/01 07:03:17;;;;;;;20.27;3.63;;;;;;;;;;5064652;28;20516;-80
2023/01/01 07:05:43;;;;;;;20.67;3.90;;;;;;;;;;5046269;28;20082;-82
2023/01/01 07:08:09;;;;;;;17.35;3.25;;;;;;;;;;5070346;28;20111;-82
2023/01/01 07:10:35;;;;;;;25.98;4.55;;;;;;;;;;5067059;28;20060;-87
2023/01/01 07:13:01;;;;;;;22.88;3.97;;;;;;;;;;5051647;28;20036;-85
2023/01/01 07:15:27;;;;;;;25.75;4.32;;;;;;;;;;5063252;28;20048;-82
2023/01/01 07:17:53;;;;;;;25.63;3.13;;;;;;;;;;5069061;28;20059;-82
2023/01/01 07:20:19;;;;;;;21.50;4.00;;;;;;;;;;5065263;28;20036;-81
2023/01/01 07:22:46;;;;;;;19.90;3.00;;;;;;;;;;5060866;28;20032;-81
2023/01/01 07:25:13;;;;;;;16.48;3.92;;;;;;;;;;5066075;28;20389;-82
2023/01/01 07:27:39;;;;;;;29.98;4.75;;;;;;;;;;5065606;28;20032;-80
2023/01/01 07:30:06;;;;;;;23.00;3.17;;;;;;;;;;5046547;28;20029;-83
2023/01/01 07:32:32;;;;;;;27.25;5.13;;;;;;;;;;5063506;28;20037;-79
2023/01/01 07:34:58;;;;;;;22.23;4.28;;;;;;;;;;5052488;28;20041;-82
2023/01/01 07:37:25;;;;;;;25.00;3.63;;;;;;;;;;5067303;28;20086;-83
2023/01/01 07:39:51;;;;;;;18.40;3.60;;;;;;;;;;5047067;28;20480;-81
2023/01/01 07:42:17;;;;;;;23.30;3.20;;;;;;;;;;5063358;28;20060;-81
2023/01/01 07:44:43;;;;;;;28.10;4.53;;;;;;;;;;5067029;28;20429;-85
2023/01/01 07:47:18;;;;;;;20.30;4.20;;;;;;;;;;5064147;28;20116;-80
2023/01/01 07:49:44;;;;;;;28.13;4.18;;;;;;;;;;5061812;28;20385;-83
2023/01/01 07:52:10;;;;;;;31.27;4.57;;;;;;;;;;5067148;28;20664;-84
2023/01/01 07:54:36;;;;;;;29.73;4.55;;;;;;;;;;5063580;28;20127;-83
2023/01/01 07:57:02;;;;;;;29.23;3.45;;;;;;;;;;5068303;28;20032;-86
2023/01/01 07:59:28;;;;;;;29.35;3.92;;;;;;;;;;5066728;28;20032;-84
2023/01/01 08:01:54;;;;;;;23.17;2.92;;;;;;;;;;5059832;28;20037;-82
2023/01/01 08:04:20;;;;;;;22.08;3.35;;;;;;;;;;5071232;28;20118;-81
2023/01/01 08:06:46;;;;;;;27.65;4.88;;;;;;;;;;5056830;28;20216;-90
2023/01/01 08:09:12;;;;;;;22.55;4.30;;;;;;;;;;5074613;28;20048;-86
2023/01/01 08:11:38;;;;;;;28.35;4.30;;;;;;;;;;5062707;28;20029;-84
2023/01/01 08:14:04;;;;;;;24.42;4.53;;;;;;;;;;5046594;28;20752;-82
2023/01/01 08:16:30;;;;;;;32.65;4.72;;;;;;;;;;5057590;28;20084;-77
2023/01/01 08:18:56;;;;;;;33.17;4.70;;;;;;;;;;5062338;28;20033;-78
2023/01/01 08:21:22;;;;;;;31.58;4.00;;;;;;;;;;5057258;28;20043;-82
2023/01/01 08:23:48;;;;;;;27.90;4.57;;;;;;;;;;5045316;28;20036;-82
2023/01/01 08:26:18;;;;;;;33.90;5.50;;;;;;;;;;5059742;28;20193;-83
2023/01/01 08:28:44;;;;;;;34.10;4.75;;;;;;;;;;5063020;28;20035;-81
2023/01/01 08:31:10;;;;;;;32.03;5.00;;;;;;;;;;5042829;28;20040;-82
2023/01/01 08:33:36;;;;;;;31.80;5.95;;;;;;;;;;5047028;28;20082;-80
2023/01/01 08:36:02;;;;;;;34.10;5.18;;;;;;;;;;5060917;28;20033;-81
2023/01/01 08:38:28;;;;;;;29.90;4.32;;;;;;;;;;5063986;28;20461;-83
2023/01/01 08:40:54;;;;;;;29.38;5.15;;;;;;;;;;5054844;28;20037;-84
2023/01/01 08:43:20;;;;;;;25.95;5.07;;;;;;;;;;5046997;28;20168;-82
2023/01/01 08:45:46;;;;;;;23.67;4.90;;;;;;;;;;5064402;28;20025;-88
2023/01/01 08:48:12;;;;;;;32.65;6.30;;;;;;;;;;5060659;28;20082;-82
2023/01/01 08:50:38;;;;;;;28.05;4.55;;;;;;;;;;5063156;28;20473;-82
2023/01/01 08:53:04;;;;;;;34.17;4.72;;;;;;;;;;5058392;28;20028;-83
2023/01/01 08:55:30;;;;;;;31.48;5.63;;;;;;;;;;5064820;28;20092;-82
2023/01/01 08:57:56;;;;;;;34.42;5.18;;;;;;;;;;5059730;28;20170;-83
2023/01/01 09:00:22;;;;;;;27.50;5.18;;;;;;;;;;5057271;28;20459;-82
2023/01/01 09:02:48;;;;;;;36.30;6.97;;;;;;;;;;5059020;28;20566;-82
2023/01/01 09:05:14;;;;;;;38.47;5.57;;;;;;;;;;5057582;28;20120;-85
2023/01/01 09:07:40;;;;;;;29.70;5.10;;;;;;;;;;5045425;28;20028;-83
2023/01/01 09:10:07;;;;;;;43.88;5.38;;;;;;;;;;5063236;28;20044;-81
2023/01/01 09:12:33;;;;;;;27.20;4.60;;;;;;;;;;5047790;28;20051;-83
2023/01/01 09:14:59;;;;;;;24.95;3.92;;;;;;;;;;5065140;28;20028;-83
2023/01/01 09:17:25;;;;;;;40.92;6.80;;;;;;;;;;5060406;28;20064;-81
2023/01/01 09:19:51;;;;;;;40.13;6.45;;;;;;;;;;5066615;28;20033;-81
2023/01/01 09:22:17;;;;;;;35.63;6.05;;;;;;;;;;5051997;28;20051;-82
2023/01/01 09:24:43;;;;;;;32.75;6.70;;;;;;;;;;5068925;28;20113;-82
2023/01/01 09:27:09;;;;;;;25.00;4.65;;;;;;;;;;5071328;28;20024;-82
2023/01/01 09:29:35;;;;;;;21.65;4.32;;;;;;;;;;5071406;28;20036;-82
2023/01/01 09:32:01;;;;;;;40.88;7.97;;;;;;;;;;5068663;28;20063;-83
2023/01/01 09:34:27;;;;;;;36.97;6.68;;;;;;;;;;5068034;28;20053;-82
2023/01/01 09:36:53;;;;;;;35.35;6.60;;;;;;;;;;5054123;28;20029;-83
2023/01/01 09:39:19;;;;;;;37.30;6.00;;;;;;;;;;5065209;28;20028;-83
2023/01/01 09:41:45;;;;;;;25.70;5.40;;;;;;;;;;5053689;28;20058;-82
2023/01/01 09:44:25;;;;;;;22.80;5.68;;;;;;;;;;5070117;28;20032;-82
2023/01/01 09:46:52;;;;;;;26.65;5.93;;;;;;;;;;5048332;28;20078;-82
2023/01/01 09:49:22;;;;;;;29.17;5.20;;;;;;;;;;5060100;28;20423;-83
2023/01/01 09:51:51;;;;;;;28.92;5.40;;;;;;;;;;5056597;28;20499;-82
2023/01/01 09:54:17;;;;;;;33.13;5.38;;;;;;;;;;5052036;28;20044;-82
2023/01/01 09:56:45;;;;;;;35.13;6.47;;;;;;;;;;5054105;28;20033;-83
2023/01/01 09:59:11;;;;;;;31.40;5.13;;;;;;;;;;5062035;28;20437;-82
2023/01/01 10:01:56;;;;;;;44.13;11.05;;;;;;;;;;5051499;28;20125;-82
2023/01/01 10:04:41;;;;;;;41.13;7.20;;;;;;;;;;5069654;28;20123;-84
2023/01/01 10:07:07;;;;;;;24.90;4.78;;;;;;;;;;5049977;28;20028;-83
2023/01/01 10:09:38;;;;;;;30.58;6.68;;;;;;;;;;5071053;28;20112;-84
2023/01/01 10:12:12;;;;;;;26.98;4.25;;;;;;;;;;5059478;28;20032;-83
2023/01/01 10:14:43;;;;;;;29.02;5.32;;;;;;;;;;5070639;28;20105;-82
2023/01/01 10:17:20;;;;;;;35.63;6.00;;;;;;;;;;5066054;28;20053;-83
2023/01/01 10:19:51;;;;;;;24.95;4.22;;;;;;;;;;5061937;28;20039;-83
2023/01/01 10:22:23;;;;;;;24.90;4.45;;;;;;;;;;5049123;28;20067;-83
2023/01/01 10:24:55;;;;;;;26.38;3.53;;;;;;;;;;5070737;28;20028;-83
2023/01/01 10:27:21;;;;;;;24.92;4.82;;;;;;;;;;5053813;28;20626;-83
2023/01/01 10:29:49;;;;;;;29.50;5.35;;;;;;;;;;5067561;28;20143;-83
2023/01/01 10:32:18;;;;;;;26.27;4.28;;;;;;;;;;5069618;28;20635;-82
2023/01/01 10:34:44;;;;;;;31.20;4.00;;;;;;;;;;5070619;28;20029;-83
2023/01/01 10:37:11;;;;;;;23.90;3.70;;;;;;;;;;5063184;28;20035;-83
2023/01/01 10:39:37;;;;;;;24.33;3.75;;;;;;;;;;5035388;28;20029;-82
2023/01/01 10:42:03;;;;;;;17.77;2.72;;;;;;;;;;5066950;28;20035;-83
2023/01/01 10:44:30;;;;;;;17.90;3.25;;;;;;;;;;5069194;28;20036;-81
2023/01/01 10:46:57;;;;;;;22.52;4.03;;;;;;;;;;5067135;28;20438;-83
2023/01/01 10:49:23;;;;;;;25.50;4.75;;;;;;;;;;5065442;28;20025;-80
2023/01/01 10:51:51;;;;;;;22.08;6.75;;;;;;;;;;5066982;28;20380;-81
2023/01/01 10:54:26;;;;;;;29.08;4.68;;;;;;;;;;5068950;28;20099;-81
2023/01/01 10:56:52;;;;;;;19.10;4.38;;;;;;;;;;5070669;28;20077;-87
2023/01/01 10:59:38;;;;;;;19.52;3.38;;;;;;;;;;5076012;28;20009;-81
2023/01/01 11:02:19;;;;;;;24.00;3.88;;;;;;;;;;5063242;28;20386;-82
2023/01/01 11:04:46;;;;;;;22.13;4.93;;;;;;;;;;5070657;28;20035;-81
2023/01/01 11:07:17;;;;;;;24.83;4.53;;;;;;;;;;5068000;28;20467;-79
2023/01/01 11:09:47;;;;;;;24.23;3.77;;;;;;;;;;5066725;28;20028;-81
2023/01/01 11:12:18;;;;;;;23.77;4.53;;;;;;;;;;5061643;28;20323;-80
2023/01/01 11:14:49;;;;;;;15.52;3.20;;;;;;;;;;5043361;28;20033;-82
2023/01/01 11:17:20;;;;;;;20.48;4.68;;;;;;;;;;5063047;28;20053;-81
2023/01/01 11:19:48;;;;;;;16.60;3.17;;;;;;;;;;5066134;28;20043;-83
2023/01/01 11:22:34;;;;;;;15.45;3.30;;;;;;;;;;5067991;28;20037;-80
2023/01/01 11:25:01;;;;;;;19.98;4.15;;;;;;;;;;5063896;28;20036;-82
2023/01/01 11:27:27;;;;;;;22.88;3.00;;;;;;;;;;5065932;28;20028;-81
2023/01/01 11:30:12;;;;;;;20.42;2.65;;;;;;;;;;5064856;28;20020;-84
2023/01/01 11:32:39;;;;;;;17.55;2.65;;;;;;;;;;5058667;28;20580;-83
2023/01/01 11:35:07;;;;;;;21.30;4.55;;;;;;;;;;5062521;28;20033;-85
2023/01/01 11:37:34;;;;;;;26.13;2.83;;;;;;;;;;5062577;28;20056;-83
2023/01/01 11:40:01;;;;;;;16.73;3.25;;;;;;;;;;5061879;28;20037;-83
2023/01/01 11:42:29;;;;;;;26.40;4.05;;;;;;;;;;5061818;28;20106;-81
2023/01/01 11:45:00;;;;;;;24.70;3.65;;;;;;;;;;5056381;28;20024;-82
2023/01/01 11:47:26;;;;;;;20.80;3.10;;;;;;;;;;5047546;28;20024;-82
2023/01/01 11:49:57;;;;;;;18.70;3.95;;;;;;;;;;5064115;28;20056;-84
2023/01/01 11:52:27;;;;;;;22.48;3.97;;;;;;;;;;5063905;28;20036;-82
2023/01/01 11:55:00;;;;;;;17.90;2.60;;;;;;;;;;5062041;28;20036;-85
2023/01/01 11:57:26;;;;;;;14.07;3.22;;;;;;;;;;5064864;28;20485;-82
2023/01/01 11:59:55;;;;;;;19.52;3.42;;;;;;;;;;5053321;28;20041;-82
2023/01/01 12:02:29;;;;;;;16.48;3.28;;;;;;;;;;5062495;28;20035;-81
2023/01/01 12:05:01;;;;;;;15.70;3.10;;;;;;;;;;5047226;28;20035;-80
2023/01/01 12:07:30;;;;;;;17.80;3.75;;;;;;;;;;5065207;28;20020;-79
2023/01/01 12:10:00;;;;;;;15.48;3.28;;;;;;;;;;5064869;28;20477;-82
2023/01/01 12:12:35;;;;;;;18.85;3.05;;;;;;;;;;5066158;28;20117;-80
2023/01/01 12:15:03;;;;;;;19.65;3.53;;;;;;;;;;5058121;28;20028;-79
2023/01/01 12:17:38;;;;;;;19.42;4.15;;;;;;;;;;5057360;28;20384;-78
2023/01/01 12:20:07;;;;;;;15.98;2.83;;;;;;;;;;5065509;28;20036;-83
2023/01/01 12:22:34;;;;;;;18.58;3.15;;;;;;;;;;5062144;28;20040;-84
2023/01/01 12:25:00;;;;;;;22.55;3.50;;;;;;;;;;5068221;28;20025;-80
2023/01/01 12:27:35;;;;;;;19.27;2.90;;;;;;;;;;5063411;28;20484;-81
2023/01/01 12:30:04;;;;;;;13.85;2.75;;;;;;;;;;5058217;28;20342;-80
2023/01/01 12:32:33;;;;;;;15.88;2.75;;;;;;;;;;5062799;28;20595;-78
2023/01/01 12:34:59;;;;;;;20.35;4.63;;;;;;;;;;5061009;28;20503;-81
2023/01/01 12:37:25;;;;;;;25.83;3.95;;;;;;;;;;5064338;28;20059;-79
2023/01/01 12:39:51;;;;;;;22.40;3.40;;;;;;;;;;5061633;28;20036;-79
2023/01/01 12:42:30;;;;;;;19.70;3.65;;;;;;;;;;5063557;28;20746;-81
2023/01/01 12:45:12;;;;;;;15.45;2.65;;;;;;;;;;5059587;28;20556;-83
2023/01/01 12:47:47;;;;;;;14.18;3.13;;;;;;;;;;5063676;28;20035;-79
2023/01/01 12:50:26;;;;;;;25.10;3.20;;;;;;;;;;5044501;28;20032;-80
2023/01/01 12:53:09;;;;;;;15.98;3.30;;;;;;;;;;5061579;28;20044;-80
2023/01/01 12:55:35;;;;;;;19.60;3.60;;;;;;;;;;5058539;28;20028;-80
2023/01/01 12:58:08;;;;;;;20.67;5.45;;;;;;;;;;5066160;28;20025;-82
2023/01/01 13:00:36;;;;;;;22.77;4.63;;;;;;;;;;5062642;28;20044;-82
2023/01/01 13:03:18;;;;;;;18.98;3.38;;;;;;;;;;5046658;28;20086;-79
2023/01/01 13:05:47;;;;;;;15.40;2.80;;;;;;;;;;5037909;28;20031;-80
2023/01/01 13:08:13;;;;;;;15.60;3.20;;;;;;;;;;5063260;28;20466;-81
2023/01/01 13:10:41;;;;;;;22.98;3.38;;;;;;;;;;5059276;28;20158;-78
2023/01/01 13:13:08;;;;;;;13.48;2.92;;;;;;;;;;5060929;28;20039;-79
2023/01/01 13:15:35;;;;;;;15.32;2.35;;;;;;;;;;5056452;28;20491;-82
2023/01/01 13:18:02;;;;;;;19.88;3.03;;;;;;;;;;5035371;28;20497;-81
2023/01/01 13:20:28;;;;;;;21.58;3.65;;;;;;;;;;5058005;28;20054;-81
2023/01/01 13:22:54;;;;;;;22.33;2.60;;;;;;;;;;5060881;28;20044;-82
2023/01/01 13:25:22;;;;;;;19.35;3.58;;;;;;;;;;5045751;28;20031;-79
2023/01/01 13:30:37;;;;;;;19.80;2.92;;;;;;;;;;5060333;28;20995;-80
2023/01/01 13:33:32;;;;;;;21.92;3.47;;;;;;;;;;5059455;28;20028;-80
2023/01/01 13:36:10;;;;;;;15.55;3.35;;;;;;;;;;5059616;28;20033;-85
2023/01/01 13:38:53;;;;;;;20.08;3.50;;;;;;;;;;5057749;28;20106;-76
2023/01/01 13:41:25;;;;;;;17.38;2.97;;;;;;;;;;5058940;28;20086;-80
2023/01/01 13:43:51;;;;;;;17.17;3.30;;;;;;;;;;5061758;28;20062;-80
2023/01/01 13:46:18;;;;;;;21.58;3.22;;;;;;;;;;5061258;28;20135;-79
2023/01/01 13:48:59;;;;;;;20.38;6.28;;;;;;;;;;5062625;28;20076;-85
2023/01/01 13:51:25;;;;;;;26.05;4.90;;;;;;;;;;5058494;28;20036;-79
2023/01/01 13:54:10;;;;;;;19.98;4.22;;;;;;;;;;5069657;28;20378;-80
2023/01/01 13:56:44;;;;;;;20.73;5.95;;;;;;;;;;5069166;28;20025;-77
2023/01/01 13:59:10;;;;;;;21.50;3.40;;;;;;;;;;5053646;28;20067;-79
2023/01/01 14:01:48;;;;;;;17.45;3.75;;;;;;;;;;5060554;28;20037;-79
2023/01/01 14:04:29;;;;;;;18.40;4.20;;;;;;;;;;5043864;28;20091;-79
2023/01/01 14:06:58;;;;;;;20.67;4.13;;;;;;;;;;5060424;28;20786;-81
2023/01/01 14:09:24;;;;;;;21.77;3.63;;;;;;;;;;5059951;28;20029;-82
2023/01/01 14:11:50;;;;;;;24.48;3.80;;;;;;;;;;5060394;28;20041;-83
2023/01/01 14:14:29;;;;;;;15.20;3.65;;;;;;;;;;5061698;28;20094;-82
2023/01/01 14:16:57;;;;;;;16.30;5.35;;;;;;;;;;5061072;28;20052;-86
2023/01/01 14:19:23;;;;;;;15.73;3.28;;;;;;;;;;5057262;28;20097;-80
2023/01/01 14:21:50;;;;;;;28.13;4.28;;;;;;;;;;5054676;28;20037;-81
2023/01/01 14:24:17;;;;;;;17.23;3.38;;;;;;;;;;5061123;28;20044;-86
2023/01/01 14:26:43;;;;;;;22.17;4.22;;;;;;;;;;5064006;28;20435;-79
2023/01/01 14:29:14;;;;;;;13.30;3.13;;;;;;;;;;5061064;28;20047;-81
2023/01/01 14:31:42;;;;;;;20.20;4.88;;;;;;;;;;5061305;28;20041;-81
2023/01/01 14:34:23;;;;;;;26.42;4.57;;;;;;;;;;5057011;28;20099;-80
2023/01/01 14:36:50;;;;;;;17.70;3.40;;;;;;;;;;5057077;28;20331;-81
2023/01/01 14:39:35;;;;;;;23.40;4.40;;;;;;;;;;5040372;28;20113;-80
2023/01/01 14:42:07;;;;;;;26.05;3.45;;;;;;;;;;5056859;28;20029;-78
2023/01/01 14:44:36;;;;;;;20.55;3.95;;;;;;;;;;5058099;28;20067;-78
2023/01/01 14:47:03;;;;;;;20.60;4.47;;;;;;;;;;5062586;28;20024;-79
2023/01/01 14:49:32;;;;;;;25.30;3.80;;;;;;;;;;5054999;28;20068;-79